Time;durP1;ratioP1;P1;durP2;ratioP2;P2;SDS_P1;SDS_P2;PMS_P1;PMS_P2;Temp;Humidity;BMP_temperature;BMP_pressure;BME280_temperature;BME280_humidity;BME280_pressure;Samples;Min_cycle;Max_cycle;Signal;HPM_P1;HPM_P2
2022/06/15 00:02:07;;;;;;;10.05;6.07;;;;;;;;;;5098722;28;20043;-83
2022/06/15 00:04:34;;;;;;;11.77;6.80;;;;;;;;;;5108238;27;20050;-83
2022/06/15 00:07:00;;;;;;;11.05;6.93;;;;;;;;;;5096140;27;20446;-83
2022/06/15 00:09:27;;;;;;;10.30;5.65;;;;;;;;;;5103456;27;20036;-83
2022/06/15 00:11:53;;;;;;;8.68;5.07;;;;;;;;;;5074452;28;20091;-83
2022/06/15 00:14:25;;;;;;;10.68;6.22;;;;;;;;;;5091222;27;20039;-83
2022/06/15 00:16:52;;;;;;;11.85;7.18;;;;;;;;;;5096346;27;20402;-83
2022/06/15 00:19:18;;;;;;;10.60;6.63;;;;;;;;;;5102671;28;20494;-83
2022/06/15 00:21:45;;;;;;;11.88;6.97;;;;;;;;;;5086796;27;20183;-83
2022/06/15 00:24:12;;;;;;;9.02;5.75;;;;;;;;;;5078076;27;20074;-83
2022/06/15 00:26:39;;;;;;;10.60;6.30;;;;;;;;;;5090428;28;20376;-83
2022/06/15 00:29:05;;;;;;;11.00;7.50;;;;;;;;;;5082431;27;20043;-83
2022/06/15 00:31:31;;;;;;;11.05;6.70;;;;;;;;;;5094251;27;20125;-83
2022/06/15 00:33:57;;;;;;;12.75;6.68;;;;;;;;;;5094993;28;20428;-83
2022/06/15 00:36:24;;;;;;;13.43;7.82;;;;;;;;;;5078416;27;20281;-83
2022/06/15 00:38:52;;;;;;;11.10;7.30;;;;;;;;;;5086310;28;20078;-83
2022/06/15 00:41:29;;;;;;;11.95;7.15;;;;;;;;;;5102802;27;20034;-83
2022/06/15 00:44:03;;;;;;;14.20;8.18;;;;;;;;;;5075158;28;20047;-83
2022/06/15 00:46:40;;;;;;;12.45;7.60;;;;;;;;;;5088444;28;20040;-83
2022/06/15 00:49:12;;;;;;;12.15;7.47;;;;;;;;;;5102026;27;20054;-83
2022/06/15 00:51:38;;;;;;;11.35;7.18;;;;;;;;;;5111977;27;20035;-83
2022/06/15 00:54:05;;;;;;;11.05;7.65;;;;;;;;;;5077790;28;20082;-83
2022/06/15 00:56:31;;;;;;;10.95;7.15;;;;;;;;;;5103264;28;20085;-83
2022/06/15 00:59:05;;;;;;;11.65;7.68;;;;;;;;;;5085389;28;20039;-83
2022/06/15 01:01:31;;;;;;;12.03;8.47;;;;;;;;;;5094420;28;20039;-83
2022/06/15 01:03:59;;;;;;;11.60;7.60;;;;;;;;;;5094302;28;20034;-83
2022/06/15 01:06:35;;;;;;;13.00;8.10;;;;;;;;;;5085665;28;20115;-83
2022/06/15 01:09:08;;;;;;;11.77;8.65;;;;;;;;;;5087700;28;20272;-83
2022/06/15 01:11:35;;;;;;;14.73;8.60;;;;;;;;;;5093963;28;20537;-83
2022/06/15 01:14:16;;;;;;;15.10;8.43;;;;;;;;;;5105264;28;20060;-83
2022/06/15 01:17:01;;;;;;;12.35;8.02;;;;;;;;;;5119656;28;20043;-83
2022/06/15 01:19:27;;;;;;;12.10;7.78;;;;;;;;;;5094065;28;20040;-83
2022/06/15 01:22:26;;;;;;;11.68;7.63;;;;;;;;;;5104641;28;20040;-84
2022/06/15 01:25:11;;;;;;;11.18;7.70;;;;;;;;;;5050704;28;20050;-83
2022/06/15 01:27:37;;;;;;;;;;;;;;;;;;5097101;28;20038;-83
2022/06/15 01:30:20;;;;;;;13.77;8.02;;;;;;;;;;5110954;28;19915;-83
2022/06/15 01:33:03;;;;;;;12.90;8.98;;;;;;;;;;5099682;28;20143;-83
2022/06/15 01:35:44;;;;;;;12.77;8.55;;;;;;;;;;5083212;27;20092;-83
2022/06/15 01:38:22;;;;;;;13.88;8.02;;;;;;;;;;5104277;28;20040;-83
2022/06/15 01:41:08;;;;;;;13.32;8.25;;;;;;;;;;5110864;27;20047;-83
2022/06/15 01:43:37;;;;;;;11.95;7.97;;;;;;;;;;5063647;28;20421;-83
2022/06/15 01:46:05;;;;;;;13.00;8.15;;;;;;;;;;5122086;27;20046;-83
2022/06/15 01:48:32;;;;;;;11.25;8.18;;;;;;;;;;5099321;28;20126;-83
2022/06/15 01:51:11;;;;;;;11.85;7.75;;;;;;;;;;5111150;27;20074;-83
2022/06/15 01:53:41;;;;;;;11.55;7.68;;;;;;;;;;5102466;27;20493;-83
2022/06/15 01:56:16;;;;;;;12.60;7.35;;;;;;;;;;5102135;28;20036;-83
2022/06/15 01:58:43;;;;;;;12.00;6.70;;;;;;;;;;5105368;27;20067;-82
2022/06/15 02:01:25;;;;;;;10.48;6.68;;;;;;;;;;5108858;28;20400;-83
2022/06/15 02:04:12;;;;;;;10.43;6.93;;;;;;;;;;5105550;27;20505;-83
2022/06/15 02:06:47;;;;;;;11.13;7.25;;;;;;;;;;5080744;27;20043;-83
2022/06/15 02:09:20;;;;;;;10.45;6.70;;;;;;;;;;5124001;27;20035;-83
2022/06/15 02:11:47;;;;;;;10.35;6.78;;;;;;;;;;5106473;27;20524;-83
2022/06/15 02:14:16;;;;;;;9.95;6.68;;;;;;;;;;5115010;27;20429;-83
2022/06/15 02:17:06;;;;;;;10.98;7.20;;;;;;;;;;5090132;28;20071;-82
2022/06/15 02:19:46;;;;;;;10.63;6.85;;;;;;;;;;5082820;27;20051;-83
2022/06/15 02:22:14;;;;;;;11.07;6.32;;;;;;;;;;5113503;27;20031;-83
2022/06/15 02:24:41;;;;;;;11.63;7.40;;;;;;;;;;5098217;27;20505;-83
2022/06/15 02:27:08;;;;;;;12.15;6.75;;;;;;;;;;5114072;27;20096;-83
2022/06/15 02:29:37;;;;;;;11.23;7.38;;;;;;;;;;5117697;27;20039;-83
2022/06/15 02:32:07;;;;;;;9.90;7.15;;;;;;;;;;5126793;27;20112;-83
2022/06/15 02:34:33;;;;;;;11.65;6.43;;;;;;;;;;5115517;27;20604;-83
2022/06/15 02:36:59;;;;;;;10.50;6.30;;;;;;;;;;5104843;28;20522;-84
2022/06/15 02:39:25;;;;;;;11.45;6.78;;;;;;;;;;5123135;27;20073;-83
2022/06/15 02:41:58;;;;;;;11.68;6.88;;;;;;;;;;5096793;28;20453;-83
2022/06/15 02:44:25;;;;;;;11.88;7.03;;;;;;;;;;5125184;27;20554;-83
2022/06/15 02:46:51;;;;;;;10.60;6.70;;;;;;;;;;5102605;27;20475;-83
2022/06/15 02:49:18;;;;;;;13.00;6.72;;;;;;;;;;5113504;27;20046;-84
2022/06/15 02:51:47;;;;;;;11.65;7.68;;;;;;;;;;5096553;28;20687;-83
2022/06/15 02:54:46;;;;;;;12.85;7.65;;;;;;;;;;5098195;27;20043;-83
2022/06/15 02:57:13;;;;;;;13.05;7.50;;;;;;;;;;5044744;28;20043;-83
2022/06/15 02:59:39;;;;;;;13.52;7.57;;;;;;;;;;5109040;27;20122;-84
2022/06/15 03:02:05;;;;;;;13.05;7.95;;;;;;;;;;5114628;27;20045;-83
2022/06/15 03:04:31;;;;;;;11.27;7.00;;;;;;;;;;5121808;27;20034;-83
2022/06/15 03:06:57;;;;;;;11.02;6.90;;;;;;;;;;5105519;27;20038;-83
2022/06/15 03:09:24;;;;;;;12.07;7.88;;;;;;;;;;5129644;27;20047;-83
2022/06/15 03:11:50;;;;;;;13.18;7.97;;;;;;;;;;5097003;27;20039;-83
2022/06/15 03:14:17;;;;;;;15.18;7.47;;;;;;;;;;5108319;27;20043;-83
2022/06/15 03:16:47;;;;;;;13.88;8.27;;;;;;;;;;5112673;27;20292;-84
2022/06/15 03:19:13;;;;;;;11.85;7.63;;;;;;;;;;5096203;27;20444;-84
2022/06/15 03:21:40;;;;;;;11.73;7.55;;;;;;;;;;5125146;27;20115;-83
2022/06/15 03:24:06;;;;;;;12.77;7.32;;;;;;;;;;5101010;27;20546;-82
2022/06/15 03:26:33;;;;;;;11.93;7.43;;;;;;;;;;5112824;27;20075;-82
2022/06/15 03:28:59;;;;;;;12.55;7.82;;;;;;;;;;5113309;27;20041;-83
2022/06/15 03:31:27;;;;;;;12.38;7.18;;;;;;;;;;5096951;27;20197;-83
2022/06/15 03:33:53;;;;;;;12.45;7.43;;;;;;;;;;5122128;27;20376;-82
2022/06/15 03:36:20;;;;;;;13.27;7.32;;;;;;;;;;5103807;27;20073;-82
2022/06/15 03:38:46;;;;;;;11.27;7.47;;;;;;;;;;5096589;28;20074;-83
2022/06/15 03:41:13;;;;;;;11.68;7.32;;;;;;;;;;5108481;27;20043;-82
2022/06/15 03:43:39;;;;;;;12.68;7.97;;;;;;;;;;5116268;27;20039;-83
2022/06/15 03:46:06;;;;;;;12.93;7.90;;;;;;;;;;5101592;28;20395;-83
2022/06/15 03:48:32;;;;;;;12.52;8.20;;;;;;;;;;5107568;27;20038;-83
2022/06/15 03:50:58;;;;;;;14.43;8.80;;;;;;;;;;5095569;27;20047;-82
2022/06/15 03:53:24;;;;;;;12.65;8.27;;;;;;;;;;5105045;28;20557;-83
2022/06/15 03:55:51;;;;;;;12.50;8.00;;;;;;;;;;5119615;27;20117;-82
2022/06/15 03:58:19;;;;;;;11.43;7.38;;;;;;;;;;5097455;28;20039;-83
2022/06/15 04:00:45;;;;;;;13.48;8.60;;;;;;;;;;5107736;27;20386;-84
2022/06/15 04:03:12;;;;;;;14.25;8.35;;;;;;;;;;5115204;27;20235;-83
2022/06/15 04:05:43;;;;;;;14.75;9.23;;;;;;;;;;5118111;27;20042;-83
2022/06/15 04:11:00;;;;;;;13.40;8.88;;;;;;;;;;5093505;28;20047;-83
2022/06/15 04:13:26;;;;;;;15.85;9.98;;;;;;;;;;5100967;27;20047;-82
2022/06/15 04:15:52;;;;;;;14.18;8.45;;;;;;;;;;5115128;27;20043;-83
2022/06/15 04:18:20;;;;;;;14.07;9.23;;;;;;;;;;5108200;27;20514;-82
2022/06/15 04:20:46;;;;;;;13.85;9.27;;;;;;;;;;5113626;27;20041;-83
2022/06/15 04:23:14;;;;;;;14.32;9.20;;;;;;;;;;5102169;28;20039;-82
2022/06/15 04:25:42;;;;;;;14.95;9.65;;;;;;;;;;5104378;27;20039;-82
2022/06/15 04:28:09;;;;;;;14.85;8.80;;;;;;;;;;5107147;27;20040;-82
2022/06/15 04:30:35;;;;;;;14.40;8.48;;;;;;;;;;5109953;27;20405;-83
2022/06/15 04:33:02;;;;;;;15.27;9.45;;;;;;;;;;5100236;27;20078;-83
2022/06/15 04:35:28;;;;;;;14.80;9.15;;;;;;;;;;5098329;28;20114;-83
2022/06/15 04:37:54;;;;;;;15.73;9.55;;;;;;;;;;5107414;27;20043;-83
2022/06/15 04:40:21;;;;;;;17.42;9.88;;;;;;;;;;5112550;28;20525;-82
2022/06/15 04:42:47;;;;;;;15.60;9.57;;;;;;;;;;5119796;27;20074;-82
2022/06/15 04:45:14;;;;;;;19.20;10.98;;;;;;;;;;5103437;28;20160;-83
2022/06/15 04:47:40;;;;;;;20.27;12.40;;;;;;;;;;5111614;27;20042;-83
2022/06/15 04:50:07;;;;;;;17.70;11.55;;;;;;;;;;5074704;28;20088;-83
2022/06/15 04:52:34;;;;;;;15.32;9.63;;;;;;;;;;5115698;27;20041;-82
2022/06/15 04:55:00;;;;;;;16.13;9.73;;;;;;;;;;5099584;28;20127;-81
2022/06/15 04:57:26;;;;;;;15.65;9.70;;;;;;;;;;5107188;28;20391;-82
2022/06/15 04:59:52;;;;;;;13.25;8.15;;;;;;;;;;5094879;28;20043;-82
2022/06/15 05:02:18;;;;;;;16.13;7.85;;;;;;;;;;5104195;28;20040;-83
2022/06/15 05:04:45;;;;;;;12.80;7.47;;;;;;;;;;5102145;28;20455;-83
2022/06/15 05:07:11;;;;;;;12.90;6.80;;;;;;;;;;5099681;28;20114;-83
2022/06/15 05:09:37;;;;;;;11.05;6.82;;;;;;;;;;5111427;27;20523;-84
2022/06/15 05:12:04;;;;;;;14.98;7.43;;;;;;;;;;5101676;27;20161;-84
2022/06/15 05:14:30;;;;;;;14.18;7.70;;;;;;;;;;5121522;27;20043;-83
2022/06/15 05:16:57;;;;;;;13.43;7.15;;;;;;;;;;5095240;28;20039;-83
2022/06/15 05:19:24;;;;;;;12.43;6.78;;;;;;;;;;5128887;27;20406;-83
2022/06/15 05:21:50;;;;;;;12.98;6.90;;;;;;;;;;5097207;28;20053;-83
2022/06/15 05:24:16;;;;;;;11.52;6.05;;;;;;;;;;5098951;28;20036;-82
2022/06/15 05:26:42;;;;;;;12.32;7.05;;;;;;;;;;5099407;28;20043;-83
2022/06/15 05:29:08;;;;;;;10.07;5.93;;;;;;;;;;5098204;28;20043;-82
2022/06/15 05:31:34;;;;;;;10.02;5.55;;;;;;;;;;5119107;27;20169;-82
2022/06/15 05:34:01;;;;;;;10.18;5.90;;;;;;;;;;5123269;27;20036;-83
2022/06/15 05:36:31;;;;;;;8.90;5.10;;;;;;;;;;5113053;28;20083;-83
2022/06/15 05:38:57;;;;;;;11.48;5.50;;;;;;;;;;5112975;28;20074;-83
2022/06/15 05:41:24;;;;;;;8.65;5.05;;;;;;;;;;5100737;27;20039;-83
2022/06/15 05:43:53;;;;;;;8.85;4.75;;;;;;;;;;5115386;27;20121;-84
2022/06/15 05:46:22;;;;;;;10.02;4.80;;;;;;;;;;5101244;28;20109;-84
2022/06/15 05:48:49;;;;;;;7.88;4.22;;;;;;;;;;5112116;27;20043;-83
2022/06/15 05:51:15;;;;;;;8.55;4.63;;;;;;;;;;5115016;28;20078;-84
2022/06/15 05:53:41;;;;;;;10.60;5.22;;;;;;;;;;5104851;27;20031;-84
2022/06/15 05:56:07;;;;;;;9.38;4.22;;;;;;;;;;5133092;27;20084;-84
2022/06/15 05:58:33;;;;;;;9.65;4.63;;;;;;;;;;5115366;27;20035;-83
2022/06/15 06:01:07;;;;;;;10.35;5.15;;;;;;;;;;5134100;27;20494;-81
2022/06/15 06:03:33;;;;;;;7.97;4.65;;;;;;;;;;5125315;27;20043;-83
2022/06/15 06:05:59;;;;;;;9.38;5.28;;;;;;;;;;5125839;27;20039;-83
2022/06/15 06:08:25;;;;;;;8.05;3.83;;;;;;;;;;5098341;27;20444;-83
2022/06/15 06:10:51;;;;;;;11.57;4.85;;;;;;;;;;5126369;27;20107;-83
2022/06/15 06:13:17;;;;;;;10.63;6.00;;;;;;;;;;5102523;27;20058;-83
2022/06/15 06:15:43;;;;;;;12.35;6.10;;;;;;;;;;5101133;28;20347;-83
2022/06/15 06:18:09;;;;;;;10.07;5.97;;;;;;;;;;5127008;27;20133;-83
2022/06/15 06:20:35;;;;;;;10.27;6.75;;;;;;;;;;5097746;27;20039;-82
2022/06/15 06:23:02;;;;;;;11.82;7.10;;;;;;;;;;5123102;27;20449;-83
2022/06/15 06:25:29;;;;;;;10.68;6.80;;;;;;;;;;5105343;27;20084;-83
2022/06/15 06:27:55;;;;;;;10.50;7.18;;;;;;;;;;5098183;28;20089;-84
2022/06/15 06:30:22;;;;;;;10.20;7.22;;;;;;;;;;5127438;27;20143;-83
2022/06/15 06:32:49;;;;;;;11.57;7.70;;;;;;;;;;5101173;27;20440;-83
2022/06/15 06:35:15;;;;;;;12.85;7.22;;;;;;;;;;5119688;27;20406;-83
2022/06/15 06:37:41;;;;;;;13.15;7.90;;;;;;;;;;5126263;27;20410;-81
2022/06/15 06:40:12;;;;;;;13.27;7.82;;;;;;;;;;5096817;27;20153;-83
2022/06/15 06:42:39;;;;;;;15.82;8.85;;;;;;;;;;5105915;28;20042;-82
2022/06/15 06:45:05;;;;;;;14.88;8.02;;;;;;;;;;5104469;27;20046;-82
2022/06/15 06:47:31;;;;;;;11.75;7.15;;;;;;;;;;5098443;28;20499;-85
2022/06/15 06:49:57;;;;;;;13.30;6.25;;;;;;;;;;5096384;27;20039;-82
2022/06/15 06:52:23;;;;;;;9.95;5.53;;;;;;;;;;5123885;27;20561;-83
2022/06/15 06:54:50;;;;;;;10.95;6.07;;;;;;;;;;5103849;27;20098;-84
2022/06/15 06:57:16;;;;;;;11.93;5.78;;;;;;;;;;5098652;28;20039;-81
2022/06/15 06:59:42;;;;;;;11.50;6.00;;;;;;;;;;5096584;27;20044;-84
2022/06/15 07:02:10;;;;;;;9.98;5.82;;;;;;;;;;5107378;28;20109;-84
2022/06/15 07:04:36;;;;;;;10.68;5.43;;;;;;;;;;5110594;28;20040;-84
2022/06/15 07:07:03;;;;;;;9.23;5.05;;;;;;;;;;5125005;27;20066;-85
2022/06/15 07:09:30;;;;;;;8.45;4.20;;;;;;;;;;5113181;27;20482;-84
2022/06/15 07:12:05;;;;;;;8.73;4.50;;;;;;;;;;5099786;27;20060;-82
2022/06/15 07:14:31;;;;;;;10.13;4.85;;;;;;;;;;5084895;28;20058;-83
2022/06/15 07:16:57;;;;;;;8.13;4.38;;;;;;;;;;5090939;27;20043;-82
2022/06/15 07:19:24;;;;;;;9.55;5.03;;;;;;;;;;5093664;28;20054;-83
2022/06/15 07:21:50;;;;;;;9.35;5.13;;;;;;;;;;5076481;28;20423;-84
2022/06/15 07:24:16;;;;;;;9.20;5.75;;;;;;;;;;5089474;27;20121;-83
2022/06/15 07:26:45;;;;;;;9.32;4.55;;;;;;;;;;5098819;27;20089;-84
2022/06/15 07:29:12;;;;;;;9.20;5.07;;;;;;;;;;5078270;27;20039;-84
2022/06/15 07:31:40;;;;;;;8.48;5.10;;;;;;;;;;5114361;27;20123;-80
2022/06/15 07:34:07;;;;;;;9.98;5.60;;;;;;;;;;5096691;27;20074;-81
2022/06/15 07:36:33;;;;;;;8.98;4.82;;;;;;;;;;5096763;27;20039;-78
2022/06/15 07:38:59;;;;;;;10.50;5.45;;;;;;;;;;5096314;27;20043;-79
2022/06/15 07:41:26;;;;;;;9.95;5.00;;;;;;;;;;5096111;27;20070;-80
2022/06/15 07:43:53;;;;;;;10.07;5.47;;;;;;;;;;5097353;27;20044;-84
2022/06/15 07:46:19;;;;;;;8.95;4.50;;;;;;;;;;5099098;28;20038;-83
2022/06/15 07:51:38;;;;;;;10.50;5.10;;;;;;;;;;5091966;28;20051;-83
2022/06/15 07:54:05;;;;;;;9.52;5.05;;;;;;;;;;5088188;27;20072;-85
2022/06/15 07:56:32;;;;;;;9.75;4.82;;;;;;;;;;5078539;28;20036;-86
2022/06/15 07:58:58;;;;;;;6.80;4.03;;;;;;;;;;5095411;27;20461;-84
2022/06/15 08:01:24;;;;;;;8.95;4.40;;;;;;;;;;5087217;28;20036;-86
2022/06/15 08:03:51;;;;;;;8.15;3.90;;;;;;;;;;5088639;27;20035;-83
2022/06/15 08:06:17;;;;;;;8.48;3.90;;;;;;;;;;5096270;27;20498;-85
2022/06/15 08:08:44;;;;;;;6.47;3.67;;;;;;;;;;5075857;28;20040;-84
2022/06/15 08:11:10;;;;;;;8.07;3.97;;;;;;;;;;5083675;27;20649;-83
2022/06/15 08:13:37;;;;;;;10.15;3.63;;;;;;;;;;5096835;27;20561;-84
2022/06/15 08:16:04;;;;;;;8.50;3.90;;;;;;;;;;5081434;28;20039;-83
2022/06/15 08:18:32;;;;;;;7.95;3.72;;;;;;;;;;5093054;28;20491;-84
2022/06/15 08:21:05;;;;;;;9.35;3.78;;;;;;;;;;5100593;27;20084;-83
2022/06/15 08:23:33;;;;;;;7.82;3.80;;;;;;;;;;5097215;27;20039;-85
2022/06/15 08:26:02;;;;;;;9.88;3.40;;;;;;;;;;5096427;27;20039;-84
2022/06/15 08:28:30;;;;;;;7.40;3.20;;;;;;;;;;5096665;27;20035;-82
2022/06/15 08:30:57;;;;;;;9.90;3.67;;;;;;;;;;5085821;28;20036;-83
2022/06/15 08:33:23;;;;;;;7.03;3.30;;;;;;;;;;5086844;27;20039;-83
2022/06/15 08:35:50;;;;;;;5.45;2.72;;;;;;;;;;5078975;28;20046;-84
2022/06/15 08:38:18;;;;;;;6.68;3.00;;;;;;;;;;5108545;28;20046;-81
2022/06/15 08:40:55;;;;;;;9.25;3.28;;;;;;;;;;5082635;27;20051;-84
2022/06/15 08:43:28;;;;;;;6.07;3.00;;;;;;;;;;5095331;27;20042;-82
2022/06/15 08:45:57;;;;;;;6.32;3.03;;;;;;;;;;5078425;28;20341;-86
2022/06/15 08:48:24;;;;;;;6.82;3.00;;;;;;;;;;5089411;28;20241;-84
2022/06/15 08:50:54;;;;;;;6.85;3.33;;;;;;;;;;5085856;27;20335;-83
2022/06/15 08:53:25;;;;;;;6.68;3.22;;;;;;;;;;5096432;28;20047;-84
2022/06/15 08:56:00;;;;;;;8.75;3.30;;;;;;;;;;5095372;27;20043;-84
2022/06/15 08:58:32;;;;;;;7.60;3.08;;;;;;;;;;5096662;27;20031;-84
2022/06/15 09:01:02;;;;;;;8.30;3.45;;;;;;;;;;5099616;28;20511;-85
2022/06/15 09:03:51;;;;;;;8.25;3.30;;;;;;;;;;5077073;28;20036;-86
2022/06/15 09:06:18;;;;;;;7.35;2.97;;;;;;;;;;5086908;28;20039;-86
2022/06/15 09:08:59;;;;;;;6.30;3.15;;;;;;;;;;5092459;28;20040;-82
2022/06/15 09:11:51;;;;;;;10.02;4.30;;;;;;;;;;5092787;28;20418;-82
2022/06/15 09:14:26;;;;;;;8.00;3.70;;;;;;;;;;5103406;28;20043;-84
2022/06/15 09:16:56;;;;;;;7.03;3.55;;;;;;;;;;5089430;28;20071;-84
2022/06/15 09:19:29;;;;;;;6.82;3.00;;;;;;;;;;5076827;28;20032;-84
2022/06/15 09:21:59;;;;;;;7.20;2.78;;;;;;;;;;5082048;28;20039;-84
2022/06/15 09:24:48;;;;;;;8.18;3.50;;;;;;;;;;5112051;28;20039;-83
2022/06/15 09:27:43;;;;;;;7.43;2.80;;;;;;;;;;5095480;28;20039;-84
2022/06/15 09:30:12;;;;;;;7.55;3.13;;;;;;;;;;5054811;28;20131;-85
2022/06/15 09:32:42;;;;;;;5.70;2.50;;;;;;;;;;5092864;28;20177;-84
2022/06/15 09:35:18;;;;;;;5.90;2.53;;;;;;;;;;5096394;28;20466;-85
2022/06/15 09:37:46;;;;;;;6.28;2.53;;;;;;;;;;5104394;28;20043;-84
2022/06/15 09:40:14;;;;;;;7.28;2.80;;;;;;;;;;5103746;28;20046;-86
2022/06/15 09:42:47;;;;;;;5.47;2.60;;;;;;;;;;5079986;28;20039;-85
2022/06/15 09:45:33;;;;;;;5.70;2.80;;;;;;;;;;5075204;28;20035;-84
2022/06/15 09:48:08;;;;;;;8.43;3.10;;;;;;;;;;5060140;28;20047;-84
2022/06/15 09:50:47;;;;;;;7.20;3.17;;;;;;;;;;5092631;27;20468;-85
2022/06/15 09:53:29;;;;;;;7.47;3.25;;;;;;;;;;5101753;27;20500;-83
2022/06/15 09:56:07;;;;;;;8.65;3.30;;;;;;;;;;5099148;27;20039;-83
2022/06/15 09:58:42;;;;;;;6.85;3.10;;;;;;;;;;5099058;27;20047;-83
2022/06/15 10:01:09;;;;;;;9.05;4.35;;;;;;;;;;5109931;28;20043;-86
2022/06/15 10:03:41;;;;;;;6.93;3.50;;;;;;;;;;5078346;28;20047;-83
2022/06/15 10:06:32;;;;;;;6.00;2.88;;;;;;;;;;5095457;28;20046;-82
2022/06/15 10:09:01;;;;;;;7.53;3.28;;;;;;;;;;5084815;27;20031;-83
2022/06/15 10:11:33;;;;;;;7.03;3.25;;;;;;;;;;5087468;28;20043;-82
2022/06/15 10:14:16;;;;;;;6.93;3.33;;;;;;;;;;5093665;27;20488;-84
2022/06/15 10:16:49;;;;;;;6.68;3.25;;;;;;;;;;5079543;28;20036;-86
2022/06/15 10:19:15;;;;;;;6.85;3.35;;;;;;;;;;5079642;28;20144;-84
2022/06/15 10:21:41;;;;;;;5.65;3.38;;;;;;;;;;5095364;28;20169;-83
2022/06/15 10:24:08;;;;;;;6.82;3.25;;;;;;;;;;5096727;27;20095;-92
2022/06/15 10:26:34;;;;;;;9.05;3.97;;;;;;;;;;5118308;27;20433;-86
2022/06/15 10:29:06;;;;;;;6.20;3.10;;;;;;;;;;5115882;27;20039;-87
2022/06/15 10:31:34;;;;;;;7.53;3.17;;;;;;;;;;5099149;27;20387;-83
2022/06/15 10:34:18;;;;;;;6.60;3.50;;;;;;;;;;5099559;27;20043;-84
2022/06/15 10:36:51;;;;;;;7.80;4.38;;;;;;;;;;5101665;27;20092;-86
2022/06/15 10:39:21;;;;;;;7.10;3.33;;;;;;;;;;5099614;27;20075;-84
2022/06/15 10:41:48;;;;;;;6.72;3.78;;;;;;;;;;5116110;27;20126;-85
2022/06/15 10:44:16;;;;;;;7.97;3.00;;;;;;;;;;5079642;28;20039;-86
2022/06/15 10:46:50;;;;;;;8.75;3.00;;;;;;;;;;5095929;28;20039;-84
2022/06/15 10:49:16;;;;;;;;;;;;;;;;;;5094112;27;20035;-84
2022/06/15 10:51:43;;;;;;;7.18;3.55;;;;;;;;;;5080887;28;19916;-85
2022/06/15 10:54:28;;;;;;;7.70;3.55;;;;;;;;;;5102353;27;20490;-86
2022/06/15 11:02:23;;;;;;;5.63;2.58;;;;;;;;;;5096751;28;20035;-84
2022/06/15 11:04:49;;;;;;;7.47;3.10;;;;;;;;;;5096581;28;20126;-86
2022/06/15 11:27:38;;;;;;;8.13;3.30;;;;;;;;;;5113517;28;20206;-85
2022/06/15 11:30:08;;;;;;;6.70;3.58;;;;;;;;;;5075304;28;20430;-83
2022/06/15 11:32:53;;;;;;;6.68;3.13;;;;;;;;;;5121392;27;20050;-85
2022/06/15 11:35:22;;;;;;;;;;;;;;;;;;5092723;28;20043;-85
2022/06/15 11:37:52;;;;;;;5.35;3.03;;;;;;;;;;5075324;28;19916;-83
2022/06/15 11:40:25;;;;;;;8.02;3.50;;;;;;;;;;5102361;27;20518;-86
2022/06/15 11:42:51;;;;;;;7.15;3.53;;;;;;;;;;5097354;28;20043;-86
2022/06/15 11:45:20;;;;;;;5.00;3.05;;;;;;;;;;5095824;28;20071;-83
2022/06/15 11:47:57;;;;;;;5.43;2.95;;;;;;;;;;5096057;28;20035;-85
2022/06/15 11:50:30;;;;;;;6.18;3.00;;;;;;;;;;5094579;28;20453;-85
2022/06/15 11:53:15;;;;;;;5.45;2.90;;;;;;;;;;5082641;27;20445;-82
2022/06/15 11:55:41;;;;;;;5.00;3.17;;;;;;;;;;5131804;27;20035;-84
2022/06/15 11:58:18;;;;;;;6.55;2.95;;;;;;;;;;5109517;28;20043;-83
2022/06/15 12:00:45;;;;;;;5.60;2.70;;;;;;;;;;5126803;27;20036;-84
2022/06/15 12:03:30;;;;;;;7.32;3.35;;;;;;;;;;5102789;27;20054;-83
2022/06/15 12:06:03;;;;;;;7.30;3.28;;;;;;;;;;5132993;27;20045;-84
2022/06/15 12:08:35;;;;;;;5.35;3.40;;;;;;;;;;5116042;27;20042;-83
2022/06/15 12:14:10;;;;;;;5.40;3.10;;;;;;;;;;5097868;27;20050;-84
2022/06/15 12:16:40;;;;;;;6.25;3.10;;;;;;;;;;5096839;28;20042;-84
2022/06/15 12:19:18;;;;;;;6.07;2.97;;;;;;;;;;5078146;28;20122;-83
2022/06/15 12:21:48;;;;;;;5.40;3.38;;;;;;;;;;5094200;28;20530;-83
2022/06/15 12:24:38;;;;;;;6.75;3.35;;;;;;;;;;5110968;28;20062;-84
2022/06/15 12:27:11;;;;;;;6.70;3.45;;;;;;;;;;5049765;28;20047;-83
2022/06/15 12:29:44;;;;;;;7.00;3.38;;;;;;;;;;5093918;28;20040;-82
2022/06/15 12:34:58;;;;;;;5.15;3.17;;;;;;;;;;5112828;28;20047;-83
2022/06/15 12:37:38;;;;;;;7.03;3.47;;;;;;;;;;5076398;28;20054;-83
2022/06/15 12:40:13;;;;;;;9.25;3.60;;;;;;;;;;5113112;28;20071;-83
2022/06/15 12:42:42;;;;;;;6.05;3.28;;;;;;;;;;5078287;28;20060;-83
2022/06/15 12:45:14;;;;;;;5.82;3.03;;;;;;;;;;5111885;28;20046;-83
2022/06/15 12:47:41;;;;;;;6.15;3.45;;;;;;;;;;5094413;28;20043;-83
2022/06/15 12:50:10;;;;;;;7.85;3.60;;;;;;;;;;5115531;28;20039;-82
2022/06/15 12:52:43;;;;;;;6.75;3.33;;;;;;;;;;5113825;27;20039;-84
2022/06/15 12:55:34;;;;;;;6.50;3.15;;;;;;;;;;5115610;27;20242;-84
2022/06/15 12:58:12;;;;;;;7.25;3.53;;;;;;;;;;5109159;28;20050;-84
2022/06/15 13:00:48;;;;;;;6.95;3.78;;;;;;;;;;5103756;28;20039;-84
2022/06/15 13:03:20;;;;;;;7.47;3.60;;;;;;;;;;5114024;28;20809;-86
2022/06/15 13:05:46;;;;;;;6.60;3.83;;;;;;;;;;5109070;28;20039;-87
2022/06/15 13:08:14;;;;;;;7.18;3.47;;;;;;;;;;5101476;28;20039;-86
2022/06/15 13:10:56;;;;;;;6.55;3.42;;;;;;;;;;5113744;28;20066;-85
2022/06/15 13:13:33;;;;;;;6.78;3.42;;;;;;;;;;5114636;28;20134;-85
2022/06/15 13:16:07;;;;;;;9.45;3.45;;;;;;;;;;5104876;28;20079;-83
2022/06/15 13:18:39;;;;;;;8.60;3.70;;;;;;;;;;5087528;28;20043;-85
2022/06/15 13:21:05;;;;;;;6.22;3.15;;;;;;;;;;5130210;28;20047;-84
2022/06/15 13:23:34;;;;;;;7.03;4.10;;;;;;;;;;5125289;28;20043;-84
2022/06/15 13:26:01;;;;;;;6.57;3.60;;;;;;;;;;5110490;28;20126;-84
2022/06/15 13:28:32;;;;;;;6.32;3.30;;;;;;;;;;5081104;28;20047;-85
2022/06/15 13:31:09;;;;;;;10.82;4.28;;;;;;;;;;5098278;28;20073;-85
2022/06/15 13:33:51;;;;;;;7.35;3.50;;;;;;;;;;5104910;27;20114;-85
2022/06/15 13:36:22;;;;;;;9.85;3.65;;;;;;;;;;5134345;27;20642;-84
2022/06/15 13:38:50;;;;;;;6.32;3.28;;;;;;;;;;5117949;27;20499;-85
2022/06/15 13:41:24;;;;;;;7.05;3.78;;;;;;;;;;5117757;27;20047;-83
2022/06/15 13:43:51;;;;;;;8.90;4.00;;;;;;;;;;5105522;28;20118;-86
2022/06/15 13:46:27;;;;;;;10.38;4.03;;;;;;;;;;5107290;27;20047;-87
2022/06/15 13:48:53;;;;;;;8.10;3.65;;;;;;;;;;5100254;27;20072;-86
2022/06/15 13:51:24;;;;;;;8.30;4.35;;;;;;;;;;5116447;27;20031;-85
2022/06/15 13:53:54;;;;;;;8.55;4.22;;;;;;;;;;5087549;28;20043;-84
2022/06/15 13:56:31;;;;;;;12.63;4.70;;;;;;;;;;5093903;27;20043;-83
2022/06/15 13:59:14;;;;;;;6.85;3.72;;;;;;;;;;5118220;27;20504;-85
2022/06/15 14:02:01;;;;;;;6.28;3.58;;;;;;;;;;5117776;27;20501;-86
2022/06/15 14:04:45;;;;;;;8.93;3.60;;;;;;;;;;5118087;27;20414;-84
2022/06/15 14:07:12;;;;;;;6.10;3.83;;;;;;;;;;5115561;27;20043;-85
2022/06/15 14:09:38;;;;;;;5.65;3.80;;;;;;;;;;5120555;27;20043;-84
2022/06/15 14:12:13;;;;;;;7.05;4.00;;;;;;;;;;5095560;28;20065;-83
2022/06/15 14:14:52;;;;;;;8.55;3.58;;;;;;;;;;5075216;28;20043;-82
2022/06/15 14:17:36;;;;;;;6.05;3.65;;;;;;;;;;5059747;28;20161;-83
2022/06/15 14:20:26;;;;;;;7.13;3.42;;;;;;;;;;5076886;27;20039;-84
2022/06/15 14:23:01;;;;;;;7.07;3.17;;;;;;;;;;5107311;28;20043;-86
2022/06/15 14:25:28;;;;;;;9.95;3.90;;;;;;;;;;5090443;27;20122;-85
2022/06/15 14:27:56;;;;;;;8.52;3.70;;;;;;;;;;5113951;27;20042;-85
2022/06/15 14:30:27;;;;;;;8.20;3.63;;;;;;;;;;5104014;27;20402;-86
2022/06/15 14:32:58;;;;;;;6.28;3.78;;;;;;;;;;5109904;27;20547;-85
2022/06/15 14:35:25;;;;;;;7.60;3.75;;;;;;;;;;5115551;27;20470;-82
2022/06/15 14:37:52;;;;;;;6.88;3.72;;;;;;;;;;5115783;27;20082;-85
2022/06/15 14:40:38;;;;;;;7.22;3.38;;;;;;;;;;5117808;27;20064;-83
2022/06/15 14:43:05;;;;;;;5.95;3.58;;;;;;;;;;5117515;27;20440;-85
2022/06/15 14:45:36;;;;;;;6.90;3.30;;;;;;;;;;5116270;27;20122;-83
2022/06/15 14:48:05;;;;;;;9.20;3.63;;;;;;;;;;5118947;27;20091;-83
2022/06/15 14:50:33;;;;;;;5.85;3.10;;;;;;;;;;5119673;27;20468;-85
2022/06/15 14:53:06;;;;;;;6.13;3.30;;;;;;;;;;5122122;27;20698;-85
2022/06/15 14:55:34;;;;;;;6.68;3.45;;;;;;;;;;5100182;27;20039;-86
2022/06/15 14:58:20;;;;;;;8.27;3.60;;;;;;;;;;5130416;27;20043;-86
2022/06/15 15:00:46;;;;;;;7.80;3.17;;;;;;;;;;5099095;27;20478;-86
2022/06/15 15:03:30;;;;;;;7.63;3.40;;;;;;;;;;5131840;27;20047;-86
2022/06/15 15:06:26;;;;;;;4.68;3.05;;;;;;;;;;5078705;28;20479;-88
2022/06/15 15:08:53;;;;;;;7.88;3.13;;;;;;;;;;5074458;28;20040;-85
2022/06/15 15:11:36;;;;;;;6.35;3.45;;;;;;;;;;5096032;28;20082;-84
2022/06/15 15:14:12;;;;;;;6.60;3.17;;;;;;;;;;5111816;27;20118;-83
2022/06/15 15:16:38;;;;;;;6.82;2.92;;;;;;;;;;5118320;27;20030;-84
2022/06/15 15:19:08;;;;;;;6.38;3.45;;;;;;;;;;5102901;27;20043;-82
2022/06/15 15:21:35;;;;;;;4.57;2.67;;;;;;;;;;5136410;27;20468;-83
2022/06/15 15:24:04;;;;;;;5.43;2.80;;;;;;;;;;5107336;27;20518;-83
2022/06/15 15:26:38;;;;;;;7.45;2.92;;;;;;;;;;5099762;27;20509;-83
2022/06/15 15:34:38;;;;;;;6.60;3.20;;;;;;;;;;5131718;27;20483;-84
2022/06/15 15:39:51;;;;;;;7.00;3.33;;;;;;;;;;5119857;27;20325;-85
2022/06/15 15:42:19;;;;;;;6.03;3.03;;;;;;;;;;5106249;27;20083;-85
2022/06/15 15:44:46;;;;;;;5.35;2.97;;;;;;;;;;5112578;27;20529;-85